createdAt,value
2018-12-08T00:01:35.165Z,31.27
2018-12-08T00:04:05.991Z,30.97
2018-12-08T00:06:36.647Z,33.23
2018-12-08T00:09:08.553Z,27.53
2018-12-08T00:11:39.264Z,34.37
2018-12-08T00:14:09.958Z,28.47
2018-12-08T00:16:40.658Z,28.73
2018-12-08T00:19:11.406Z,27.07
2018-12-08T00:21:42.127Z,37.10
2018-12-08T00:24:12.822Z,29.73
2018-12-08T00:26:43.659Z,33.17
2018-12-08T00:29:14.380Z,29.57
2018-12-08T00:31:47.765Z,29.20
2018-12-08T00:34:18.615Z,29.23
2018-12-08T00:36:50.252Z,34.03
2018-12-08T00:39:21.040Z,33.97
2018-12-08T00:41:51.854Z,33.23
2018-12-08T00:44:22.604Z,34.97
2018-12-08T00:46:54.433Z,28.57
2018-12-08T00:49:26.229Z,30.20
2018-12-08T00:51:57.103Z,29.77
2018-12-08T00:54:27.819Z,34.73
2018-12-08T00:56:59.651Z,35.30
2018-12-08T00:59:30.416Z,33.17
2018-12-08T01:02:01.180Z,32.47
2018-12-08T01:04:33.073Z,34.87
2018-12-08T01:07:05.860Z,28.43
2018-12-08T01:09:36.628Z,29.70
2018-12-08T01:12:07.569Z,33.27
2018-12-08T01:14:38.319Z,33.50
2018-12-08T01:17:09.466Z,34.37
2018-12-08T01:19:40.276Z,44.77
2018-12-08T01:22:11.022Z,36.17
2018-12-08T01:24:41.823Z,117.00
2018-12-08T01:27:12.573Z,66.90
2018-12-08T01:29:44.470Z,105.60
2018-12-08T01:32:15.431Z,116.93
2018-12-08T01:34:46.226Z,150.47
2018-12-08T01:37:17.002Z,129.83
2018-12-08T01:39:47.711Z,116.07
2018-12-08T01:42:18.477Z,115.47
2018-12-08T01:44:49.234Z,149.97
2018-12-08T01:47:20.008Z,259.90
2018-12-08T01:49:50.683Z,112.63
2018-12-08T01:52:22.362Z,109.10
2018-12-08T01:54:53.199Z,68.07
2018-12-08T01:57:23.896Z,188.87
2018-12-08T01:59:54.623Z,91.63
2018-12-08T02:02:25.464Z,151.50
2018-12-08T02:04:56.173Z,132.63
2018-12-08T02:07:26.932Z,127.00
2018-12-08T02:09:57.704Z,79.30
2018-12-08T02:12:28.880Z,65.53
2018-12-08T02:14:59.570Z,89.50
2018-12-08T02:17:30.351Z,92.57
2018-12-08T02:20:01.137Z,54.23
2018-12-08T02:22:31.903Z,68.33
2018-12-08T02:25:02.614Z,64.60
2018-12-08T02:27:33.303Z,57.33
2018-12-08T02:30:04.563Z,58.73
2018-12-08T02:32:36.659Z,62.73
2018-12-08T02:35:07.477Z,55.47
2018-12-08T02:37:38.195Z,50.23
2018-12-08T02:40:10.372Z,58.17
2018-12-08T02:42:41.074Z,55.43
2018-12-08T02:45:11.890Z,43.90
2018-12-08T02:47:42.695Z,62.10
2018-12-08T02:50:13.588Z,62.70
2018-12-08T02:52:45.310Z,49.33
2018-12-08T02:55:16.085Z,46.13
2018-12-08T02:57:46.829Z,53.30
2018-12-08T03:00:18.821Z,42.93
2018-12-08T03:02:49.552Z,36.60
2018-12-08T03:05:20.341Z,46.33
2018-12-08T03:07:51.107Z,47.20
2018-12-08T03:10:21.937Z,41.10
2018-12-08T03:12:53.460Z,69.00
2018-12-08T03:15:24.143Z,53.37
2018-12-08T03:17:54.925Z,28.43
2018-12-08T03:20:25.592Z,34.97
2018-12-08T03:22:57.225Z,35.87
2018-12-08T03:25:27.897Z,33.07
2018-12-08T03:27:58.665Z,34.70
2018-12-08T03:30:29.301Z,33.13
2018-12-08T03:33:00.702Z,30.23
2018-12-08T03:35:32.004Z,30.60
2018-12-08T03:38:02.740Z,31.87
2018-12-08T03:40:33.402Z,29.63
2018-12-08T03:43:04.160Z,28.60
2018-12-08T03:45:34.879Z,29.30
2018-12-08T03:48:05.680Z,26.53
2018-12-08T03:50:36.397Z,20.93
2018-12-08T03:53:07.410Z,25.27
2018-12-08T03:55:38.078Z,27.93
2018-12-08T03:58:08.956Z,24.67
2018-12-08T04:00:39.648Z,27.70
2018-12-08T04:03:10.410Z,33.60
2018-12-08T04:05:41.160Z,34.90
2018-12-08T04:08:12.037Z,29.73
2018-12-08T04:10:42.793Z,26.17
2018-12-08T04:13:13.678Z,27.00
2018-12-08T04:15:44.519Z,24.77
2018-12-08T04:18:15.132Z,29.83
2018-12-08T04:20:45.882Z,32.87
2018-12-08T04:23:16.531Z,23.50
2018-12-08T04:25:47.314Z,23.93
2018-12-08T04:28:18.047Z,25.77
2018-12-08T04:30:48.855Z,25.07
2018-12-08T04:33:19.720Z,26.23
2018-12-08T04:35:50.709Z,26.70
2018-12-08T04:38:21.406Z,26.80
2018-12-08T04:40:52.177Z,29.20
2018-12-08T04:43:22.907Z,22.40
2018-12-08T04:45:54.620Z,34.30
2018-12-08T04:48:25.334Z,24.07
2018-12-08T04:50:56.065Z,24.33
2018-12-08T04:53:27.121Z,27.07
2018-12-08T04:55:57.895Z,24.37
2018-12-08T04:58:28.691Z,23.43
2018-12-08T05:00:59.510Z,23.70
2018-12-08T05:03:30.361Z,19.90
2018-12-08T05:06:01.121Z,24.90
2018-12-08T05:08:32.046Z,25.83
2018-12-08T05:11:02.954Z,23.03
2018-12-08T05:13:35.024Z,34.00
2018-12-08T05:16:05.858Z,28.63
2018-12-08T05:18:37.033Z,29.33
2018-12-08T05:21:07.734Z,26.37
2018-12-08T05:23:38.465Z,25.13
2018-12-08T05:26:09.211Z,28.63
2018-12-08T05:28:40.038Z,22.93
2018-12-08T05:31:10.740Z,27.53
2018-12-08T05:33:41.668Z,23.50
2018-12-08T05:36:12.359Z,24.67
2018-12-08T05:38:43.171Z,20.33
2018-12-08T05:41:13.925Z,23.23
2018-12-08T05:43:44.598Z,24.60
2018-12-08T05:46:15.361Z,29.03
2018-12-08T05:48:46.086Z,30.93
2018-12-08T05:51:16.842Z,23.07
2018-12-08T05:53:47.704Z,33.93
2018-12-08T05:56:18.440Z,30.20
2018-12-08T05:58:49.203Z,19.80
2018-12-08T06:01:19.998Z,24.77
2018-12-08T06:03:50.744Z,22.47
2018-12-08T06:06:21.572Z,30.77
2018-12-08T06:08:52.242Z,39.50
2018-12-08T06:11:23.003Z,40.97
2018-12-08T06:13:53.868Z,63.13
2018-12-08T06:16:24.615Z,24.37
2018-12-08T06:18:55.320Z,22.63
2018-12-08T06:21:40.996Z,28.53
2018-12-08T06:24:11.790Z,27.63
2018-12-08T06:27:02.334Z,25.17
2018-12-08T06:29:33.109Z,22.30
2018-12-08T06:32:03.772Z,21.67
2018-12-08T06:34:34.879Z,22.83
2018-12-08T06:37:05.583Z,23.83
2018-12-08T06:39:36.253Z,31.70
2018-12-08T06:42:06.992Z,35.00
2018-12-08T06:44:37.794Z,29.70
2018-12-08T06:47:08.501Z,39.20
2018-12-08T06:49:39.285Z,28.87
2018-12-08T06:52:10.069Z,41.53
2018-12-08T06:54:40.900Z,53.80
2018-12-08T06:57:11.720Z,44.87
2018-12-08T06:59:42.431Z,33.73
2018-12-08T07:02:13.182Z,25.03
2018-12-08T07:04:43.954Z,22.63
2018-12-08T07:07:14.773Z,26.27
2018-12-08T07:09:45.564Z,18.07
2018-12-08T07:12:16.363Z,17.50
2018-12-08T07:14:47.325Z,22.67
2018-12-08T07:17:18.106Z,25.80
2018-12-08T07:19:48.892Z,24.97
2018-12-08T07:22:19.563Z,52.67
2018-12-08T07:24:50.360Z,21.77
2018-12-08T07:27:21.302Z,26.03
2018-12-08T07:29:52.258Z,48.23
2018-12-08T07:32:23.126Z,48.57
2018-12-08T07:34:56.992Z,50.33
2018-12-08T07:37:27.797Z,69.60
2018-12-08T07:39:59.111Z,72.67
2018-12-08T07:42:30.211Z,90.50
2018-12-08T07:45:01.057Z,47.97
2018-12-08T07:47:31.868Z,45.80
2018-12-08T07:50:02.644Z,50.63
2018-12-08T07:52:33.924Z,102.47
2018-12-08T07:55:05.440Z,88.10
2018-12-08T07:57:36.166Z,80.60
2018-12-08T08:00:10.898Z,36.17
2018-12-08T08:02:42.990Z,25.33
2018-12-08T08:05:13.774Z,27.60
2018-12-08T08:07:44.557Z,23.37
2018-12-08T08:10:15.327Z,26.67
2018-12-08T08:12:46.144Z,30.97
2018-12-08T08:15:17.221Z,41.57
2018-12-08T08:17:47.934Z,47.57
2018-12-08T08:20:18.852Z,73.00
2018-12-08T08:22:49.674Z,58.17
2018-12-08T08:25:20.519Z,67.43
2018-12-08T08:27:51.285Z,46.80
2018-12-08T08:30:22.479Z,52.90
2018-12-08T08:32:53.306Z,61.30
2018-12-08T08:35:24.700Z,43.33
2018-12-08T08:37:55.517Z,31.40
2018-12-08T08:40:26.362Z,33.40
2018-12-08T08:42:57.092Z,27.73
2018-12-08T08:45:27.844Z,29.20
2018-12-08T08:47:58.617Z,31.03
2018-12-08T08:50:29.523Z,37.87
2018-12-08T08:53:02.413Z,48.70
2018-12-08T08:55:33.323Z,48.07
2018-12-08T08:58:04.128Z,40.90
2018-12-08T09:00:34.917Z,49.80
2018-12-08T09:03:05.717Z,40.97
2018-12-08T09:05:36.502Z,29.77
2018-12-08T09:08:07.252Z,44.73
2018-12-08T09:10:38.018Z,40.90
2018-12-08T09:13:08.771Z,45.03
2018-12-08T09:15:45.115Z,38.23
2018-12-08T09:18:16.753Z,24.47
2018-12-08T09:20:47.564Z,33.97
2018-12-08T09:23:18.436Z,36.43
2018-12-08T09:25:49.228Z,51.20
2018-12-08T09:28:20.177Z,25.37
2018-12-08T09:30:51.057Z,58.60
2018-12-08T09:33:21.857Z,58.73
2018-12-08T09:35:52.848Z,44.10
2018-12-08T09:38:23.652Z,53.27
2018-12-08T09:40:54.491Z,36.27
2018-12-08T09:43:25.250Z,21.03
2018-12-08T09:45:56.129Z,25.70
2018-12-08T09:48:26.864Z,31.57
2018-12-08T09:50:57.668Z,31.20
2018-12-08T09:53:28.478Z,41.70
2018-12-08T09:55:59.532Z,40.47
2018-12-08T09:58:30.322Z,31.53
2018-12-08T10:01:01.619Z,26.63
2018-12-08T10:03:32.393Z,28.07
2018-12-08T10:06:03.193Z,24.13
2018-12-08T10:08:33.939Z,24.83
2018-12-08T10:11:04.747Z,18.37
2018-12-08T10:13:35.550Z,20.57
2018-12-08T10:16:06.452Z,18.37
2018-12-08T10:18:37.246Z,23.47
2018-12-08T10:21:07.970Z,21.10
2018-12-08T10:23:38.774Z,26.17
2018-12-08T10:26:09.542Z,31.40
2018-12-08T10:28:40.367Z,28.97
2018-12-08T10:31:11.124Z,26.03
2018-12-08T10:33:41.885Z,21.17
2018-12-08T10:36:13.019Z,24.57
2018-12-08T10:38:43.836Z,18.90
2018-12-08T10:41:14.811Z,23.77
2018-12-08T10:43:45.611Z,24.13
2018-12-08T10:46:16.383Z,21.93
2018-12-08T10:48:47.204Z,19.43
2018-12-08T10:51:18.033Z,23.33
2018-12-08T10:53:50.958Z,22.60
2018-12-08T10:56:22.100Z,18.10
2018-12-08T10:58:52.832Z,24.37
2018-12-08T11:01:29.844Z,18.43
2018-12-08T11:04:00.625Z,19.53
2018-12-08T11:06:31.420Z,26.93
2018-12-08T11:09:03.383Z,19.23
2018-12-08T11:11:35.620Z,22.37
2018-12-08T11:14:06.375Z,24.73
2018-12-08T11:16:37.237Z,25.50
2018-12-08T11:19:08.093Z,29.83
2018-12-08T11:21:40.282Z,32.87
2018-12-08T11:24:11.000Z,20.10
2018-12-08T11:26:41.793Z,25.50
2018-12-08T11:29:12.560Z,37.97
2018-12-08T11:31:43.372Z,25.20
2018-12-08T11:34:14.024Z,30.63
2018-12-08T11:36:49.487Z,29.90
2018-12-08T11:39:17.563Z,28.13
2018-12-08T11:41:48.688Z,20.67
2018-12-08T11:44:19.734Z,23.10
2018-12-08T11:46:50.709Z,29.67
2018-12-08T11:49:21.531Z,28.67
2018-12-08T11:51:52.305Z,26.40
2018-12-08T11:54:23.202Z,29.50
2018-12-08T11:56:54.315Z,50.10
2018-12-08T11:59:25.124Z,51.80
2018-12-08T12:01:55.905Z,24.43
2018-12-08T12:04:27.231Z,34.03
2018-12-08T12:06:58.831Z,37.27
2018-12-08T12:09:29.583Z,31.37
2018-12-08T12:12:00.351Z,41.00
2018-12-08T12:14:50.616Z,33.40
2018-12-08T12:17:21.550Z,23.47
2018-12-08T12:19:52.240Z,36.57
2018-12-08T12:22:23.034Z,77.70
2018-12-08T12:24:53.786Z,98.50
2018-12-08T12:27:24.861Z,60.30
2018-12-08T12:29:55.666Z,51.07
2018-12-08T12:32:26.480Z,70.50
2018-12-08T12:34:57.192Z,60.90
2018-12-08T12:37:28.272Z,45.27
2018-12-08T12:39:59.074Z,54.13
2018-12-08T12:42:29.904Z,25.47
2018-12-08T12:45:00.685Z,24.17
2018-12-08T12:47:32.038Z,24.83
2018-12-08T12:50:02.814Z,25.63
2018-12-08T12:52:33.625Z,26.43
2018-12-08T12:55:04.357Z,18.87
2018-12-08T12:57:35.439Z,27.37
2018-12-08T13:00:08.014Z,25.93
2018-12-08T13:02:38.822Z,24.83
2018-12-08T13:05:09.679Z,40.43
2018-12-08T13:07:41.391Z,48.07
2018-12-08T13:10:12.362Z,50.23
2018-12-08T13:12:43.208Z,47.40
2018-12-08T13:15:14.013Z,35.30
2018-12-08T13:17:44.853Z,39.03
2018-12-08T13:20:15.522Z,34.03
2018-12-08T13:22:46.251Z,39.20
2018-12-08T13:25:25.872Z,32.60
2018-12-08T13:27:56.609Z,62.10
2018-12-08T13:30:27.308Z,49.00
2018-12-08T13:32:59.481Z,50.43
2018-12-08T13:35:55.889Z,42.87
2018-12-08T13:38:26.993Z,31.80
2018-12-08T13:41:04.570Z,39.40
2018-12-08T13:43:35.375Z,45.50
2018-12-08T13:46:06.132Z,81.20
2018-12-08T13:48:37.084Z,77.77
2018-12-08T13:51:08.135Z,65.07
2018-12-08T13:53:38.940Z,66.73
2018-12-08T13:56:09.750Z,63.47
2018-12-08T13:58:40.770Z,73.70
2018-12-08T14:01:11.479Z,57.47
2018-12-08T14:03:42.231Z,57.73
2018-12-08T14:06:12.861Z,76.63
2018-12-08T14:08:43.788Z,124.70
2018-12-08T14:11:14.529Z,99.00
2018-12-08T14:13:45.384Z,92.93
2018-12-08T14:16:16.193Z,77.67
2018-12-08T14:18:47.221Z,66.00
2018-12-08T14:21:17.994Z,74.40
2018-12-08T14:23:48.812Z,46.77
2018-12-08T14:26:19.540Z,53.67
2018-12-08T14:28:50.347Z,53.13
2018-12-08T14:31:21.361Z,56.57
2018-12-08T14:33:52.350Z,77.07
2018-12-08T14:36:23.183Z,75.13
2018-12-08T14:38:57.908Z,69.30
2018-12-08T14:41:28.947Z,62.30
2018-12-08T14:43:59.708Z,62.67
2018-12-08T14:46:30.681Z,58.53
2018-12-08T14:49:02.680Z,81.73
2018-12-08T14:51:33.422Z,93.57
2018-12-08T14:54:04.462Z,82.83
2018-12-08T14:56:35.802Z,69.63
2018-12-08T14:59:07.486Z,82.57
2018-12-08T15:01:38.513Z,83.90
2018-12-08T15:04:09.309Z,85.43
2018-12-08T15:06:40.261Z,78.07
2018-12-08T15:09:11.168Z,51.70
2018-12-08T15:11:42.010Z,48.83
2018-12-08T15:14:12.871Z,57.23
2018-12-08T15:16:44.530Z,63.13
2018-12-08T15:19:15.712Z,54.57
2018-12-08T15:21:46.485Z,54.70
2018-12-08T15:24:17.290Z,52.60
2018-12-08T15:26:48.160Z,50.57
2018-12-08T15:29:18.904Z,59.60
2018-12-08T15:31:49.706Z,59.43
2018-12-08T15:34:20.463Z,54.60
2018-12-08T15:36:51.301Z,41.23
2018-12-08T15:39:22.395Z,38.63
2018-12-08T15:41:53.213Z,39.10
2018-12-08T15:44:24.025Z,49.00
2018-12-08T15:46:55.232Z,54.97
2018-12-08T15:49:26.703Z,57.83
2018-12-08T15:51:59.150Z,54.17
2018-12-08T15:54:29.949Z,47.77
2018-12-08T15:57:00.807Z,54.67
2018-12-08T15:59:32.287Z,51.80
2018-12-08T16:02:03.051Z,46.87
2018-12-08T16:04:33.847Z,67.43
2018-12-08T16:07:04.748Z,45.40
2018-12-08T16:09:35.545Z,42.10
2018-12-08T16:12:06.365Z,44.73
2018-12-08T16:14:37.139Z,46.30
2018-12-08T16:17:08.079Z,38.77
2018-12-08T16:19:39.513Z,38.77
2018-12-08T16:22:10.344Z,40.63
2018-12-08T16:24:41.205Z,68.17
2018-12-08T16:27:12.534Z,62.10
2018-12-08T16:29:43.442Z,72.20
2018-12-08T16:32:14.227Z,65.33
2018-12-08T16:34:44.964Z,54.47
2018-12-08T16:37:15.931Z,67.73
2018-12-08T16:39:48.229Z,54.67
2018-12-08T16:42:19.087Z,57.20
2018-12-08T16:44:49.840Z,57.37
2018-12-08T16:47:20.699Z,47.53
2018-12-08T16:49:51.510Z,54.90
2018-12-08T16:52:22.377Z,51.70
2018-12-08T16:54:53.273Z,45.07
2018-12-08T16:57:24.072Z,43.43
2018-12-08T16:59:54.920Z,47.03
2018-12-08T17:02:25.616Z,39.80
2018-12-08T17:04:57.925Z,38.27
2018-12-08T17:07:28.675Z,41.77
2018-12-08T17:09:59.516Z,38.57
2018-12-08T17:12:30.303Z,32.73
2018-12-08T17:15:01.174Z,35.27
2018-12-08T17:17:31.978Z,28.97
2018-12-08T17:20:02.944Z,37.17
2018-12-08T17:22:33.724Z,37.67
2018-12-08T17:25:04.638Z,38.37
2018-12-08T17:27:35.512Z,42.17
2018-12-08T17:30:06.750Z,39.70
2018-12-08T17:32:37.626Z,32.17
2018-12-08T17:35:09.024Z,31.37
2018-12-08T17:37:39.937Z,32.57
2018-12-08T17:40:11.095Z,30.30
2018-12-08T17:42:41.872Z,33.27
2018-12-08T17:45:12.713Z,35.33
2018-12-08T17:47:44.497Z,51.60
2018-12-08T17:50:15.421Z,47.27
2018-12-08T17:52:46.176Z,30.97
2018-12-08T17:55:17.000Z,32.67
2018-12-08T17:57:47.791Z,33.47
2018-12-08T18:00:18.898Z,39.73
2018-12-08T18:02:49.777Z,30.47
2018-12-08T18:05:21.999Z,34.43
2018-12-08T18:07:52.843Z,35.27
2018-12-08T18:10:23.654Z,35.20
2018-12-08T18:12:54.383Z,39.00
2018-12-08T18:15:25.332Z,32.17
2018-12-08T18:17:56.235Z,41.63
2018-12-08T18:20:28.783Z,65.07
2018-12-08T18:22:59.573Z,48.57
2018-12-08T18:25:31.519Z,40.17
2018-12-08T18:28:02.422Z,58.57
2018-12-08T18:30:33.157Z,61.10
2018-12-08T18:33:03.948Z,49.33
2018-12-08T18:35:34.686Z,48.40
2018-12-08T18:38:05.492Z,33.33
2018-12-08T18:40:36.274Z,49.90
2018-12-08T18:43:06.934Z,42.43
2018-12-08T18:45:37.723Z,43.07
2018-12-08T18:48:08.487Z,36.70
2018-12-08T18:50:39.301Z,56.97
2018-12-08T18:53:10.098Z,58.33
2018-12-08T18:55:40.771Z,54.77
2018-12-08T18:58:11.685Z,54.80
2018-12-08T19:00:42.656Z,37.07
2018-12-08T19:03:13.526Z,27.30
2018-12-08T19:05:44.374Z,34.63
2018-12-08T19:08:15.233Z,44.47
2018-12-08T19:10:45.927Z,50.90
2018-12-08T19:13:16.673Z,45.03
2018-12-08T19:15:48.283Z,40.40
2018-12-08T19:18:19.058Z,53.50
2018-12-08T19:20:50.007Z,45.77
2018-12-08T19:23:20.821Z,31.77
2018-12-08T19:25:51.760Z,27.13
2018-12-08T19:28:22.502Z,27.30
2018-12-08T19:30:53.291Z,27.37
2018-12-08T19:33:24.064Z,27.67
2018-12-08T19:35:54.853Z,24.30
2018-12-08T19:38:26.905Z,26.40
2018-12-08T19:40:57.916Z,22.70
2018-12-08T19:43:29.590Z,27.57
2018-12-08T19:46:00.286Z,24.77
2018-12-08T19:48:31.086Z,25.97
2018-12-08T19:51:01.839Z,29.63
2018-12-08T19:53:32.741Z,31.70
2018-12-08T19:56:03.575Z,27.97
2018-12-08T19:58:34.364Z,32.80
2018-12-08T20:01:05.228Z,29.77
2018-12-08T20:03:36.081Z,34.30
2018-12-08T20:06:06.895Z,26.40
2018-12-08T20:08:37.657Z,26.37
2018-12-08T20:11:08.494Z,26.10
2018-12-08T20:13:39.331Z,30.33
2018-12-08T20:16:10.116Z,26.07
2018-12-08T20:18:40.940Z,36.07
2018-12-08T20:21:11.797Z,24.43
2018-12-08T20:23:42.546Z,26.13
2018-12-08T20:26:13.243Z,23.43
2018-12-08T20:28:49.329Z,25.23
2018-12-08T20:31:24.000Z,27.77
2018-12-08T20:36:46.233Z,24.17
2018-12-08T20:39:16.982Z,22.30
2018-12-08T20:41:47.648Z,20.77
2018-12-08T20:44:18.414Z,28.73
2018-12-08T20:46:49.247Z,22.00
2018-12-08T20:49:20.949Z,23.63
2018-12-08T20:51:52.781Z,24.30
2018-12-08T20:54:24.296Z,26.90
2018-12-08T20:56:55.003Z,26.27
2018-12-08T20:59:25.758Z,26.03
2018-12-08T21:01:56.549Z,27.53
2018-12-08T21:04:27.334Z,37.77
2018-12-08T21:06:58.134Z,33.63
2018-12-08T21:09:28.884Z,37.57
2018-12-08T21:11:59.667Z,43.33
2018-12-08T21:14:30.705Z,42.33
2018-12-08T21:17:01.393Z,36.23
2018-12-08T21:19:32.186Z,34.77
2018-12-08T21:22:02.983Z,39.23
2018-12-08T21:24:33.721Z,38.97
2018-12-08T21:27:06.128Z,38.43
2018-12-08T21:29:37.265Z,45.57
2018-12-08T21:32:08.093Z,37.40
2018-12-08T21:34:38.897Z,34.10
2018-12-08T21:37:09.725Z,35.33
2018-12-08T21:39:40.565Z,31.93
2018-12-08T21:42:11.340Z,30.40
2018-12-08T21:44:42.081Z,26.77
2018-12-08T21:47:12.904Z,30.17
2018-12-08T21:49:43.717Z,27.43
2018-12-08T21:52:14.425Z,26.90
2018-12-08T21:54:45.087Z,28.20
2018-12-08T21:57:15.890Z,28.90
2018-12-08T21:59:46.444Z,30.47
2018-12-08T22:02:18.232Z,29.23
2018-12-08T22:04:49.048Z,31.30
2018-12-08T22:07:19.885Z,32.53
2018-12-08T22:09:50.704Z,33.73
2018-12-08T22:12:21.572Z,38.93
2018-12-08T22:14:57.400Z,31.90
2018-12-08T22:17:28.621Z,33.80
2018-12-08T22:19:59.406Z,37.47
2018-12-08T22:22:31.031Z,32.80
2018-12-08T22:25:01.833Z,29.73
2018-12-08T22:27:32.583Z,32.60
2018-12-08T22:30:03.304Z,30.83
2018-12-08T22:32:34.059Z,32.73
2018-12-08T22:35:05.045Z,33.50
2018-12-08T22:37:35.829Z,35.53
2018-12-08T22:40:07.592Z,35.57
2018-12-08T22:42:38.296Z,31.23
2018-12-08T22:45:10.121Z,32.00
2018-12-08T22:47:40.944Z,25.87
2018-12-08T22:50:11.778Z,24.33
2018-12-08T22:52:42.576Z,30.73
2018-12-08T22:55:13.532Z,28.70
2018-12-08T22:57:44.390Z,30.13
2018-12-08T23:00:27.275Z,28.53
2018-12-08T23:03:00.097Z,30.50
2018-12-08T23:05:30.838Z,28.50
2018-12-08T23:08:01.694Z,28.87
2018-12-08T23:10:32.516Z,35.97
2018-12-08T23:13:03.311Z,28.10
2018-12-08T23:15:35.596Z,28.37
2018-12-08T23:18:06.474Z,28.27
2018-12-08T23:20:37.263Z,31.40
2018-12-08T23:23:08.056Z,27.63
2018-12-08T23:25:38.842Z,30.10
2018-12-08T23:28:09.705Z,32.13
2018-12-08T23:30:40.534Z,28.33
2018-12-08T23:33:11.396Z,32.37
2018-12-08T23:35:42.301Z,36.67
2018-12-08T23:38:13.054Z,29.87
2018-12-08T23:40:43.819Z,31.90
2018-12-08T23:43:14.733Z,29.43
2018-12-08T23:45:45.475Z,35.93
2018-12-08T23:48:16.260Z,30.50
2018-12-08T23:50:46.949Z,34.83
2018-12-08T23:53:17.645Z,36.97
2018-12-08T23:55:48.670Z,32.00
2018-12-08T23:58:19.393Z,26.17
